Time;durP1;ratioP1;P1;durP2;ratioP2;P2;SDS_P1;SDS_P2;PMS_P1;PMS_P2;Temp;Humidity;BMP_temperature;BMP_pressure;BME280_temperature;BME280_humidity;BME280_pressure;Samples;Min_cycle;Max_cycle;Signal;HPM_P1;HPM_P2
2023/09/14 00:01:12;;;;;;;8.95;6.60;;;;;;;;;;6186149;23;20064;-69
2023/09/14 00:03:38;;;;;;;9.00;6.53;;;;;;;;;;6186184;23;20491;-69
2023/09/14 00:06:04;;;;;;;12.60;6.35;;;;;;;;;;6185736;23;20430;-69
2023/09/14 00:08:31;;;;;;;9.32;6.03;;;;;;;;;;6160408;23;20084;-69
2023/09/14 00:10:58;;;;;;;9.20;6.70;;;;;;;;;;6186034;23;20164;-68
2023/09/14 00:13:25;;;;;;;11.25;6.20;;;;;;;;;;6186019;23;20072;-69
2023/09/14 00:15:52;;;;;;;9.50;6.38;;;;;;;;;;6186002;23;20119;-69
2023/09/14 00:18:19;;;;;;;9.55;6.63;;;;;;;;;;6186042;23;20076;-69
2023/09/14 00:20:45;;;;;;;9.73;6.30;;;;;;;;;;6185367;23;20076;-69
2023/09/14 00:23:12;;;;;;;8.18;6.47;;;;;;;;;;6185726;23;20535;-69
2023/09/14 00:25:38;;;;;;;10.88;6.82;;;;;;;;;;6185961;23;20076;-68
2023/09/14 00:28:05;;;;;;;9.60;6.38;;;;;;;;;;6159465;23;20096;-69
2023/09/14 00:30:31;;;;;;;10.18;7.20;;;;;;;;;;6185880;23;20072;-69
2023/09/14 00:32:57;;;;;;;7.68;6.47;;;;;;;;;;6159522;23;20068;-69
2023/09/14 00:35:24;;;;;;;10.20;6.75;;;;;;;;;;6185308;23;20080;-69
2023/09/14 00:37:51;;;;;;;8.32;6.50;;;;;;;;;;6185957;23;20084;-69
2023/09/14 00:40:17;;;;;;;8.27;6.93;;;;;;;;;;6185745;23;20503;-69
2023/09/14 00:42:48;;;;;;;10.10;7.35;;;;;;;;;;6185791;23;20438;-68
2023/09/14 00:45:15;;;;;;;10.07;6.93;;;;;;;;;;6185595;23;20080;-68
2023/09/14 00:47:43;;;;;;;15.77;7.00;;;;;;;;;;6185873;23;20316;-68
2023/09/14 00:50:10;;;;;;;13.00;7.10;;;;;;;;;;6185292;23;20492;-68
2023/09/14 00:52:37;;;;;;;9.70;6.20;;;;;;;;;;6185639;23;20479;-69
2023/09/14 00:55:05;;;;;;;7.72;6.22;;;;;;;;;;6159325;23;20092;-69
2023/09/14 00:57:31;;;;;;;15.68;6.78;;;;;;;;;;6185016;23;20373;-69
2023/09/14 00:59:58;;;;;;;7.40;5.88;;;;;;;;;;6185553;23;20083;-68
2023/09/14 01:02:26;;;;;;;9.50;6.85;;;;;;;;;;6185591;23;20077;-69
2023/09/14 01:04:52;;;;;;;10.20;6.68;;;;;;;;;;6185258;23;20080;-69
2023/09/14 01:07:19;;;;;;;9.75;6.93;;;;;;;;;;6185505;23;20071;-69
2023/09/14 01:09:45;;;;;;;9.68;7.40;;;;;;;;;;6185392;23;20068;-69
2023/09/14 01:12:13;;;;;;;9.85;6.90;;;;;;;;;;6185556;23;20176;-69
2023/09/14 01:14:48;;;;;;;8.52;6.65;;;;;;;;;;6185486;23;20076;-68
2023/09/14 01:17:34;;;;;;;11.02;7.25;;;;;;;;;;6185262;23;20088;-68
2023/09/14 01:20:24;;;;;;;10.20;6.30;;;;;;;;;;6065147;23;20418;-68
2023/09/14 01:23:10;;;;;;;12.75;6.82;;;;;;;;;;6065394;23;20544;-69
2023/09/14 01:25:43;;;;;;;9.65;6.30;;;;;;;;;;5980271;24;20091;-69
2023/09/14 01:28:13;;;;;;;14.02;7.15;;;;;;;;;;5980261;24;20489;-69
2023/09/14 01:30:40;;;;;;;11.97;6.77;;;;;;;;;;5980393;24;20503;-69
2023/09/14 01:33:10;;;;;;;11.95;6.60;;;;;;;;;;5979906;23;20096;-69
2023/09/14 01:35:47;;;;;;;8.23;6.20;;;;;;;;;;5980396;23;20091;-68
2023/09/14 01:38:14;;;;;;;10.68;6.55;;;;;;;;;;5980364;24;20027;-69
2023/09/14 01:40:43;;;;;;;11.18;6.72;;;;;;;;;;5980047;23;20083;-69
2023/09/14 01:43:10;;;;;;;12.63;6.72;;;;;;;;;;5980220;24;20087;-69
2023/09/14 01:45:36;;;;;;;14.57;6.57;;;;;;;;;;5980078;23;20088;-69
2023/09/14 01:48:03;;;;;;;9.88;6.63;;;;;;;;;;5979857;23;20071;-69
2023/09/14 01:50:29;;;;;;;10.50;6.70;;;;;;;;;;5980145;24;20083;-69
2023/09/14 01:52:57;;;;;;;8.82;6.45;;;;;;;;;;5980191;23;20075;-69
2023/09/14 01:55:24;;;;;;;6.68;5.90;;;;;;;;;;5980012;23;20273;-69
2023/09/14 01:57:50;;;;;;;9.95;6.10;;;;;;;;;;6048863;23;20082;-69
2023/09/14 02:00:16;;;;;;;8.98;6.10;;;;;;;;;;6065217;23;20553;-69
2023/09/14 02:02:43;;;;;;;13.38;6.07;;;;;;;;;;6126543;23;20092;-69
2023/09/14 02:05:09;;;;;;;9.52;5.55;;;;;;;;;;6185071;23;20072;-69
2023/09/14 02:07:35;;;;;;;9.85;5.43;;;;;;;;;;6185011;23;20079;-69
2023/09/14 02:10:02;;;;;;;8.88;5.65;;;;;;;;;;6184718;23;20392;-69
2023/09/14 02:12:28;;;;;;;7.22;6.32;;;;;;;;;;6184966;23;20483;-69
2023/09/14 02:14:54;;;;;;;7.93;5.78;;;;;;;;;;6184975;23;20068;-69
2023/09/14 02:17:21;;;;;;;6.82;5.32;;;;;;;;;;6184149;23;20083;-69
2023/09/14 02:19:47;;;;;;;7.30;5.38;;;;;;;;;;6184810;23;20084;-69
2023/09/14 02:22:13;;;;;;;7.75;5.15;;;;;;;;;;6184832;23;20076;-69
2023/09/14 02:24:39;;;;;;;10.50;5.60;;;;;;;;;;6184578;23;20076;-69
2023/09/14 02:27:06;;;;;;;9.20;5.53;;;;;;;;;;6184777;23;20080;-69
2023/09/14 02:29:32;;;;;;;7.38;5.78;;;;;;;;;;6184639;23;20491;-69
2023/09/14 02:31:58;;;;;;;9.68;5.03;;;;;;;;;;6184418;23;20064;-68
2023/09/14 02:34:25;;;;;;;8.30;5.53;;;;;;;;;;6184723;23;20515;-69
2023/09/14 02:36:51;;;;;;;8.38;5.35;;;;;;;;;;6184677;23;20080;-69
2023/09/14 02:39:17;;;;;;;12.75;5.30;;;;;;;;;;6184632;23;20392;-69
2023/09/14 02:41:44;;;;;;;8.95;5.53;;;;;;;;;;6184617;23;20071;-69
2023/09/14 02:44:10;;;;;;;8.30;5.47;;;;;;;;;;6158386;23;20088;-69
2023/09/14 02:46:36;;;;;;;8.60;5.43;;;;;;;;;;6184208;23;20589;-69
2023/09/14 02:49:03;;;;;;;9.30;5.70;;;;;;;;;;6184712;23;20072;-69
2023/09/14 02:51:29;;;;;;;8.15;5.75;;;;;;;;;;6184636;23;20072;-69
2023/09/14 02:53:55;;;;;;;8.77;5.43;;;;;;;;;;6184605;23;20072;-69
2023/09/14 02:56:21;;;;;;;16.83;5.28;;;;;;;;;;6184617;23;20068;-69
2023/09/14 02:58:48;;;;;;;7.47;5.70;;;;;;;;;;6158096;23;20096;-69
2023/09/14 03:01:14;;;;;;;11.07;7.00;;;;;;;;;;6184144;23;20064;-69
2023/09/14 03:03:40;;;;;;;10.20;7.28;;;;;;;;;;6184697;23;20079;-69
2023/09/14 03:06:07;;;;;;;9.52;7.80;;;;;;;;;;6184414;23;20080;-69
2023/09/14 03:08:33;;;;;;;12.27;9.18;;;;;;;;;;6184440;23;20068;-69
2023/09/14 03:11:00;;;;;;;14.98;9.38;;;;;;;;;;6184459;23;20076;-69
2023/09/14 03:13:26;;;;;;;13.27;8.93;;;;;;;;;;6184287;23;20088;-69
2023/09/14 03:15:56;;;;;;;15.10;10.07;;;;;;;;;;6184050;23;20080;-69
2023/09/14 03:18:22;;;;;;;13.23;8.98;;;;;;;;;;6158347;23;20522;-69
2023/09/14 03:20:56;;;;;;;10.10;8.93;;;;;;;;;;6184957;23;20064;-69
2023/09/14 03:23:23;;;;;;;19.02;10.60;;;;;;;;;;6160002;23;20080;-69
2023/09/14 03:25:50;;;;;;;15.93;9.60;;;;;;;;;;6186472;23;20076;-69
2023/09/14 03:28:17;;;;;;;10.25;8.57;;;;;;;;;;6160398;23;20076;-69
2023/09/14 03:30:43;;;;;;;14.10;7.85;;;;;;;;;;6185953;23;20072;-69
2023/09/14 03:33:10;;;;;;;15.13;8.60;;;;;;;;;;6160503;23;20080;-69
2023/09/14 03:35:36;;;;;;;12.93;9.88;;;;;;;;;;6186295;23;20088;-69
2023/09/14 03:38:03;;;;;;;16.40;8.85;;;;;;;;;;6186352;23;20084;-69
2023/09/14 03:40:29;;;;;;;27.85;9.20;;;;;;;;;;6186320;23;20068;-69
2023/09/14 03:42:56;;;;;;;13.35;10.43;;;;;;;;;;6186562;23;20089;-69
2023/09/14 03:45:22;;;;;;;20.40;10.43;;;;;;;;;;6185979;23;20493;-69
2023/09/14 03:47:50;;;;;;;20.25;9.15;;;;;;;;;;6186217;23;20080;-69
2023/09/14 03:50:17;;;;;;;17.85;9.10;;;;;;;;;;6186208;23;20080;-69
2023/09/14 03:52:43;;;;;;;14.95;8.65;;;;;;;;;;6186298;23;20076;-69
2023/09/14 03:55:09;;;;;;;13.88;7.80;;;;;;;;;;6186213;23;20072;-68
2023/09/14 03:57:36;;;;;;;15.35;8.50;;;;;;;;;;6186098;23;20027;-69
2023/09/14 04:00:09;;;;;;;10.20;8.27;;;;;;;;;;6185690;23;20080;-69
2023/09/14 04:02:35;;;;;;;11.30;7.68;;;;;;;;;;6186185;23;20080;-69
2023/09/14 04:05:10;;;;;;;12.48;8.32;;;;;;;;;;6186258;23;20104;-69
2023/09/14 04:07:36;;;;;;;12.98;7.72;;;;;;;;;;6160037;23;20388;-69
2023/09/14 04:10:04;;;;;;;10.32;7.22;;;;;;;;;;6185860;23;20076;-69
2023/09/14 04:12:31;;;;;;;9.93;7.50;;;;;;;;;;6185650;23;20123;-69
2023/09/14 04:14:57;;;;;;;11.57;7.10;;;;;;;;;;6186097;23;20393;-69
2023/09/14 04:17:23;;;;;;;10.77;7.13;;;;;;;;;;6185901;23;20096;-69
2023/09/14 04:19:50;;;;;;;9.18;7.15;;;;;;;;;;6185939;23;20393;-69
2023/09/14 04:22:16;;;;;;;11.90;7.32;;;;;;;;;;6185979;23;20083;-69
2023/09/14 04:24:42;;;;;;;9.60;7.25;;;;;;;;;;6185707;23;20080;-69
2023/09/14 04:27:08;;;;;;;12.90;8.02;;;;;;;;;;6159093;23;20096;-69
2023/09/14 04:29:35;;;;;;;28.38;8.25;;;;;;;;;;6185701;23;20080;-69
2023/09/14 04:32:03;;;;;;;17.50;8.75;;;;;;;;;;6185333;23;20084;-69
2023/09/14 04:34:29;;;;;;;14.27;8.43;;;;;;;;;;6185610;23;20069;-69
2023/09/14 04:36:55;;;;;;;9.77;7.93;;;;;;;;;;6185831;23;20491;-69
2023/09/14 04:39:22;;;;;;;13.88;7.68;;;;;;;;;;6185797;23;20072;-69
2023/09/14 04:41:49;;;;;;;9.93;8.02;;;;;;;;;;6185465;23;20495;-69
2023/09/14 04:44:15;;;;;;;11.57;8.00;;;;;;;;;;6159450;23;20098;-69
2023/09/14 04:46:42;;;;;;;20.85;8.38;;;;;;;;;;6185798;23;20080;-69
2023/09/14 04:49:08;;;;;;;12.20;8.15;;;;;;;;;;6185643;23;20488;-69
2023/09/14 04:51:34;;;;;;;17.52;7.97;;;;;;;;;;6185977;23;20083;-69
2023/09/14 04:54:02;;;;;;;8.63;6.82;;;;;;;;;;6185710;23;20072;-69
2023/09/14 04:56:28;;;;;;;13.05;6.82;;;;;;;;;;6185205;23;20072;-69
2023/09/14 04:58:55;;;;;;;12.05;6.75;;;;;;;;;;6185563;23;20096;-69
2023/09/14 05:01:21;;;;;;;9.77;6.05;;;;;;;;;;6185591;23;20136;-69
2023/09/14 05:03:47;;;;;;;6.80;6.07;;;;;;;;;;6185584;23;20075;-69
2023/09/14 05:06:14;;;;;;;6.80;5.88;;;;;;;;;;6185633;23;20084;-69
2023/09/14 05:08:40;;;;;;;11.77;6.85;;;;;;;;;;6185284;23;20072;-69
2023/09/14 05:11:06;;;;;;;9.20;6.90;;;;;;;;;;6185175;23;20080;-69
2023/09/14 05:13:33;;;;;;;10.98;6.63;;;;;;;;;;6185617;23;20068;-69
2023/09/14 05:15:59;;;;;;;8.75;6.88;;;;;;;;;;6185380;23;20381;-69
2023/09/14 05:18:25;;;;;;;9.48;7.00;;;;;;;;;;6185447;23;20027;-69
2023/09/14 05:20:52;;;;;;;9.85;7.70;;;;;;;;;;6185621;23;20071;-69
2023/09/14 05:23:18;;;;;;;9.10;7.60;;;;;;;;;;6185179;23;20140;-69
2023/09/14 05:25:45;;;;;;;10.57;7.40;;;;;;;;;;6185007;23;20080;-69
2023/09/14 05:28:12;;;;;;;11.63;7.68;;;;;;;;;;6185298;23;20080;-69
2023/09/14 05:30:39;;;;;;;9.75;7.65;;;;;;;;;;6185220;23;20072;-69
2023/09/14 05:33:05;;;;;;;10.70;7.53;;;;;;;;;;6159000;23;20091;-69
2023/09/14 05:35:32;;;;;;;9.55;8.15;;;;;;;;;;6185265;23;20076;-69
2023/09/14 05:37:58;;;;;;;10.77;7.88;;;;;;;;;;6185160;23;20135;-69
2023/09/14 05:40:25;;;;;;;13.38;8.80;;;;;;;;;;6184529;23;20085;-69
2023/09/14 05:42:51;;;;;;;17.33;8.73;;;;;;;;;;6158982;23;20076;-69
2023/09/14 05:45:17;;;;;;;9.80;8.35;;;;;;;;;;6158586;23;20078;-69
2023/09/14 05:47:43;;;;;;;11.23;8.52;;;;;;;;;;6185183;23;20076;-69
2023/09/14 05:50:10;;;;;;;13.45;8.48;;;;;;;;;;6185050;23;20076;-69
2023/09/14 05:52:36;;;;;;;9.80;7.70;;;;;;;;;;6184976;23;20125;-69
2023/09/14 05:55:06;;;;;;;11.35;7.25;;;;;;;;;;6184620;23;20127;-69
2023/09/14 05:57:32;;;;;;;10.73;8.50;;;;;;;;;;6184947;23;20076;-69
2023/09/14 06:00:08;;;;;;;10.05;7.50;;;;;;;;;;6184915;23;20072;-69
2023/09/14 06:02:34;;;;;;;9.77;7.38;;;;;;;;;;6155300;23;20076;-69
2023/09/14 06:05:00;;;;;;;10.07;7.93;;;;;;;;;;6184378;23;20084;-69
2023/09/14 06:07:27;;;;;;;8.85;7.65;;;;;;;;;;6184499;23;20075;-69
2023/09/14 06:09:54;;;;;;;12.40;7.85;;;;;;;;;;6184009;23;20076;-69
2023/09/14 06:12:20;;;;;;;12.57;7.95;;;;;;;;;;6179509;23;20100;-68
2023/09/14 06:14:46;;;;;;;9.95;7.85;;;;;;;;;;6181508;23;20452;-68
2023/09/14 06:17:13;;;;;;;12.70;8.32;;;;;;;;;;6182697;23;20084;-67
2023/09/14 06:19:39;;;;;;;10.43;8.10;;;;;;;;;;6181538;23;20007;-68
2023/09/14 06:22:05;;;;;;;12.95;8.27;;;;;;;;;;6182917;23;20061;-68
2023/09/14 06:24:32;;;;;;;10.32;8.05;;;;;;;;;;6182362;23;20084;-69
2023/09/14 06:26:58;;;;;;;9.48;8.30;;;;;;;;;;6184139;23;20079;-68
2023/09/14 06:29:25;;;;;;;10.82;8.63;;;;;;;;;;6182645;23;20087;-68
2023/09/14 06:31:52;;;;;;;9.93;7.47;;;;;;;;;;6183281;23;20092;-69
2023/09/14 06:34:18;;;;;;;10.32;8.02;;;;;;;;;;6184098;23;20084;-69
2023/09/14 06:36:44;;;;;;;12.30;6.88;;;;;;;;;;6183109;23;20494;-69
2023/09/14 06:39:12;;;;;;;8.55;6.90;;;;;;;;;;6183312;23;20076;-69
2023/09/14 06:41:38;;;;;;;6.72;6.03;;;;;;;;;;6183512;23;20079;-69
2023/09/14 06:44:05;;;;;;;7.97;6.45;;;;;;;;;;6182089;23;20081;-69
2023/09/14 06:46:31;;;;;;;6.30;5.15;;;;;;;;;;6179694;23;20060;-69
2023/09/14 06:48:58;;;;;;;7.78;6.57;;;;;;;;;;6182948;23;20080;-69
2023/09/14 06:51:24;;;;;;;7.65;6.53;;;;;;;;;;6183077;23;20076;-68
2023/09/14 06:53:51;;;;;;;7.15;6.45;;;;;;;;;;6180251;23;20618;-69
2023/09/14 06:56:18;;;;;;;10.13;7.13;;;;;;;;;;6181848;23;20065;-69
2023/09/14 06:58:45;;;;;;;9.95;6.22;;;;;;;;;;6154327;23;20029;-69
2023/09/14 07:01:11;;;;;;;7.55;6.47;;;;;;;;;;6181637;23;20072;-69
2023/09/14 07:03:38;;;;;;;7.65;6.15;;;;;;;;;;6182601;23;20364;-69
2023/09/14 07:06:04;;;;;;;6.57;5.70;;;;;;;;;;6181097;23;20085;-68
2023/09/14 07:08:30;;;;;;;7.50;6.18;;;;;;;;;;6181198;23;20076;-68
2023/09/14 07:10:57;;;;;;;8.65;6.35;;;;;;;;;;6180601;23;20080;-68
2023/09/14 07:13:24;;;;;;;6.30;5.47;;;;;;;;;;6182448;23;20446;-68
2023/09/14 07:15:51;;;;;;;6.03;5.43;;;;;;;;;;6181768;23;20076;-68
2023/09/14 07:18:26;;;;;;;7.25;5.55;;;;;;;;;;6181089;23;20143;-68
2023/09/14 07:20:52;;;;;;;6.72;5.47;;;;;;;;;;6181928;23;20065;-67
2023/09/14 07:23:19;;;;;;;5.40;4.90;;;;;;;;;;6182486;23;20092;-67
2023/09/14 07:25:47;;;;;;;5.32;4.82;;;;;;;;;;6182405;23;20100;-68
2023/09/14 07:28:13;;;;;;;9.90;3.63;;;;;;;;;;6182317;23;20080;-67
2023/09/14 07:30:39;;;;;;;7.45;4.72;;;;;;;;;;6181906;23;20085;-68
2023/09/14 07:33:06;;;;;;;4.95;4.38;;;;;;;;;;6156412;23;20084;-68
2023/09/14 07:35:34;;;;;;;4.93;4.53;;;;;;;;;;6181095;23;20156;-68
2023/09/14 07:38:01;;;;;;;4.20;3.80;;;;;;;;;;6181249;23;20100;-68
2023/09/14 07:40:27;;;;;;;5.68;4.63;;;;;;;;;;6182516;23;20069;-68
2023/09/14 07:42:53;;;;;;;4.85;4.35;;;;;;;;;;6182752;23;20088;-67
2023/09/14 07:45:19;;;;;;;5.50;4.13;;;;;;;;;;6182007;23;20068;-68
2023/09/14 07:47:46;;;;;;;4.80;4.28;;;;;;;;;;6181970;23;20080;-68
2023/09/14 07:50:12;;;;;;;6.18;3.92;;;;;;;;;;6181882;23;20072;-67
2023/09/14 07:52:41;;;;;;;5.95;4.38;;;;;;;;;;6182296;23;20096;-68
2023/09/14 07:55:10;;;;;;;7.72;4.18;;;;;;;;;;6182487;23;20088;-71
2023/09/14 07:57:37;;;;;;;7.15;2.90;;;;;;;;;;6181821;23;20545;-65
2023/09/14 08:00:03;;;;;;;6.53;3.38;;;;;;;;;;6182130;23;20108;-67
2023/09/14 08:02:30;;;;;;;3.60;3.30;;;;;;;;;;6155553;23;20088;-67
2023/09/14 08:04:56;;;;;;;5.57;3.55;;;;;;;;;;6181780;23;20076;-67
2023/09/14 08:07:22;;;;;;;3.70;3.40;;;;;;;;;;6179511;23;20050;-67
2023/09/14 08:09:48;;;;;;;7.53;3.50;;;;;;;;;;6183330;23;20076;-67
2023/09/14 08:12:15;;;;;;;4.35;3.20;;;;;;;;;;6183504;23;20080;-67
2023/09/14 08:14:41;;;;;;;3.33;3.03;;;;;;;;;;6182717;23;20096;-68
2023/09/14 08:17:08;;;;;;;2.90;2.67;;;;;;;;;;6183466;23;20080;-68
2023/09/14 08:19:34;;;;;;;3.75;3.13;;;;;;;;;;6182972;23;20072;-68
2023/09/14 08:22:00;;;;;;;3.13;2.83;;;;;;;;;;6157217;23;20069;-68
2023/09/14 08:24:27;;;;;;;4.30;2.65;;;;;;;;;;6182410;23;20091;-68
2023/09/14 08:26:53;;;;;;;3.13;2.80;;;;;;;;;;6182826;23;20519;-68
2023/09/14 08:29:19;;;;;;;2.70;2.50;;;;;;;;;;6182967;23;20076;-69
2023/09/14 08:31:48;;;;;;;2.85;2.65;;;;;;;;;;6183574;23;20122;-68
2023/09/14 08:34:14;;;;;;;4.13;2.65;;;;;;;;;;6183538;23;20076;-68
2023/09/14 08:36:41;;;;;;;2.72;2.53;;;;;;;;;;6156550;23;20092;-68
2023/09/14 08:39:07;;;;;;;2.92;2.63;;;;;;;;;;6182579;23;20385;-69
2023/09/14 08:41:39;;;;;;;3.85;2.22;;;;;;;;;;6182697;23;20503;-69
2023/09/14 08:44:06;;;;;;;3.15;2.38;;;;;;;;;;6182271;23;20096;-68
2023/09/14 08:46:33;;;;;;;2.53;2.25;;;;;;;;;;6183640;23;20088;-68
2023/09/14 08:49:00;;;;;;;2.70;2.50;;;;;;;;;;6183456;23;20072;-67
2023/09/14 08:51:28;;;;;;;4.10;2.40;;;;;;;;;;6182278;23;20511;-67
2023/09/14 08:53:55;;;;;;;4.28;2.22;;;;;;;;;;6183238;23;20076;-68
2023/09/14 08:56:22;;;;;;;7.55;2.97;;;;;;;;;;6183489;23;20081;-67
2023/09/14 08:58:48;;;;;;;13.32;2.80;;;;;;;;;;6182692;23;20499;-68
2023/09/14 09:01:18;;;;;;;12.15;3.08;;;;;;;;;;6183809;23;20068;-67
2023/09/14 09:03:45;;;;;;;8.13;2.88;;;;;;;;;;6181489;23;20072;-67
2023/09/14 09:06:11;;;;;;;7.95;3.10;;;;;;;;;;6182557;23;20080;-68
2023/09/14 09:08:38;;;;;;;5.50;2.33;;;;;;;;;;6182663;23;20076;-68
2023/09/14 09:11:05;;;;;;;7.88;2.50;;;;;;;;;;6183493;23;20072;-67
2023/09/14 09:13:43;;;;;;;2.83;2.13;;;;;;;;;;6182937;23;20064;-68
2023/09/14 09:16:11;;;;;;;3.78;1.65;;;;;;;;;;6183640;23;20080;-68
2023/09/14 09:18:57;;;;;;;2.20;2.00;;;;;;;;;;6182743;23;20513;-67
2023/09/14 09:21:28;;;;;;;4.95;2.00;;;;;;;;;;6183180;23;20081;-67
2023/09/14 09:23:55;;;;;;;3.20;1.70;;;;;;;;;;6182709;23;20096;-68
2023/09/14 09:26:21;;;;;;;2.35;2.03;;;;;;;;;;6183225;23;20396;-68
2023/09/14 09:28:48;;;;;;;5.22;2.13;;;;;;;;;;6182882;23;20095;-67
2023/09/14 09:31:15;;;;;;;1.83;1.73;;;;;;;;;;6182981;23;20079;-68
2023/09/14 09:33:46;;;;;;;3.60;1.92;;;;;;;;;;6182644;23;20495;-68
2023/09/14 09:36:19;;;;;;;3.90;2.30;;;;;;;;;;6183109;23;20147;-68
2023/09/14 09:38:48;;;;;;;2.15;1.95;;;;;;;;;;6183054;23;20020;-68
2023/09/14 09:41:15;;;;;;;1.88;1.77;;;;;;;;;;6183252;23;20865;-68
2023/09/14 09:43:44;;;;;;;2.90;1.80;;;;;;;;;;6182571;23;20085;-68
2023/09/14 09:46:16;;;;;;;1.83;1.73;;;;;;;;;;6182689;23;20080;-68
2023/09/14 09:48:43;;;;;;;2.22;1.80;;;;;;;;;;6182762;23;20084;-68
2023/09/14 09:51:10;;;;;;;1.70;1.60;;;;;;;;;;6183174;23;20076;-69
2023/09/14 09:53:36;;;;;;;6.43;1.70;;;;;;;;;;6183251;23;20076;-68
2023/09/14 09:56:03;;;;;;;1.90;1.52;;;;;;;;;;6182709;23;20097;-68
2023/09/14 09:58:38;;;;;;;2.63;2.00;;;;;;;;;;6182739;23;20096;-68
2023/09/14 10:01:06;;;;;;;1.67;1.58;;;;;;;;;;6181538;23;20096;-68
2023/09/14 10:03:33;;;;;;;1.95;1.80;;;;;;;;;;6182918;23;20087;-68
2023/09/14 10:06:00;;;;;;;2.42;2.00;;;;;;;;;;6180239;23;20084;-68
2023/09/14 10:08:27;;;;;;;3.17;1.70;;;;;;;;;;6182930;23;20123;-68
2023/09/14 10:10:54;;;;;;;3.38;1.80;;;;;;;;;;6183096;23;20080;-67
2023/09/14 10:13:22;;;;;;;2.00;1.80;;;;;;;;;;6182092;23;20096;-68
2023/09/14 10:15:49;;;;;;;5.30;1.60;;;;;;;;;;6181909;23;20080;-68
2023/09/14 10:18:16;;;;;;;5.13;1.80;;;;;;;;;;6182954;23;20096;-68
2023/09/14 10:20:42;;;;;;;2.05;1.83;;;;;;;;;;6183067;23;20075;-68
2023/09/14 10:23:10;;;;;;;1.80;1.70;;;;;;;;;;6182637;23;20084;-68
2023/09/14 10:25:37;;;;;;;2.92;1.48;;;;;;;;;;6182959;23;20084;-68
2023/09/14 10:28:04;;;;;;;2.63;1.48;;;;;;;;;;6182932;23;20080;-68
2023/09/14 10:30:32;;;;;;;5.22;1.90;;;;;;;;;;6182586;23;20483;-68
2023/09/14 10:32:59;;;;;;;1.67;1.50;;;;;;;;;;6183447;23;20092;-68
2023/09/14 10:35:28;;;;;;;1.60;1.50;;;;;;;;;;6183238;23;20076;-68
2023/09/14 10:37:55;;;;;;;2.00;1.63;;;;;;;;;;6183214;23;20105;-68
2023/09/14 10:40:21;;;;;;;3.58;1.80;;;;;;;;;;6183450;23;20068;-68
2023/09/14 10:42:48;;;;;;;2.63;1.70;;;;;;;;;;6157137;23;20084;-68
2023/09/14 10:45:14;;;;;;;6.95;1.70;;;;;;;;;;6182909;23;20105;-68
2023/09/14 10:47:46;;;;;;;3.80;1.65;;;;;;;;;;6183177;23;20103;-68
2023/09/14 10:50:13;;;;;;;1.60;1.50;;;;;;;;;;6157231;23;20140;-68
2023/09/14 10:52:40;;;;;;;1.70;1.60;;;;;;;;;;6183211;23;20076;-68
2023/09/14 10:55:10;;;;;;;3.13;1.70;;;;;;;;;;6183087;23;20072;-68
2023/09/14 10:57:39;;;;;;;1.80;1.30;;;;;;;;;;6182543;23;20095;-68
2023/09/14 11:00:06;;;;;;;4.07;1.57;;;;;;;;;;6182598;23;20073;-68
2023/09/14 11:02:43;;;;;;;1.67;1.40;;;;;;;;;;6183191;23;20084;-68
2023/09/14 11:05:13;;;;;;;5.97;1.90;;;;;;;;;;6183264;23;20080;-68
2023/09/14 11:07:40;;;;;;;1.70;1.55;;;;;;;;;;6183450;23;20080;-68
2023/09/14 11:10:07;;;;;;;3.28;1.70;;;;;;;;;;6182985;23;20079;-68
2023/09/14 11:12:33;;;;;;;4.25;1.77;;;;;;;;;;6156988;23;20135;-68
2023/09/14 11:15:14;;;;;;;2.30;2.10;;;;;;;;;;6183125;23;20391;-68
2023/09/14 11:17:44;;;;;;;1.50;1.40;;;;;;;;;;6183180;23;20080;-68
2023/09/14 11:20:30;;;;;;;1.50;1.40;;;;;;;;;;6183910;23;20079;-68
2023/09/14 11:23:03;;;;;;;2.03;1.65;;;;;;;;;;6163416;23;20406;-68
2023/09/14 11:25:33;;;;;;;1.33;1.23;;;;;;;;;;6183284;23;20081;-68
2023/09/14 11:28:00;;;;;;;1.50;1.40;;;;;;;;;;6182984;23;20084;-68
2023/09/14 11:30:27;;;;;;;1.90;1.50;;;;;;;;;;6157157;23;20076;-68
2023/09/14 11:32:54;;;;;;;1.77;1.67;;;;;;;;;;6183696;23;20076;-68
2023/09/14 11:35:41;;;;;;;2.63;1.60;;;;;;;;;;6183391;23;20068;-68
2023/09/14 11:38:17;;;;;;;3.80;1.60;;;;;;;;;;6174422;23;20096;-67
2023/09/14 11:40:44;;;;;;;2.15;1.17;;;;;;;;;;6150914;23;20104;-68
2023/09/14 11:43:20;;;;;;;3.38;1.40;;;;;;;;;;6182980;23;20495;-72
2023/09/14 11:45:47;;;;;;;2.05;1.40;;;;;;;;;;6157862;23;20060;-71
2023/09/14 11:48:14;;;;;;;1.60;1.33;;;;;;;;;;6182728;23;20091;-71
2023/09/14 11:50:50;;;;;;;1.50;1.40;;;;;;;;;;6183325;23;20067;-69
2023/09/14 11:53:18;;;;;;;1.42;1.33;;;;;;;;;;6184398;23;20430;-71
2023/09/14 11:55:53;;;;;;;2.20;1.38;;;;;;;;;;6184124;23;20080;-68
2023/09/14 11:58:23;;;;;;;1.48;1.35;;;;;;;;;;6183190;23;20024;-68
2023/09/14 12:00:50;;;;;;;3.13;1.48;;;;;;;;;;6184505;23;20124;-69
2023/09/14 12:03:17;;;;;;;1.67;1.58;;;;;;;;;;6183997;23;20088;-69
2023/09/14 12:05:43;;;;;;;2.60;1.50;;;;;;;;;;6183611;23;20088;-67
2023/09/14 12:08:10;;;;;;;1.70;1.60;;;;;;;;;;6183200;23;20012;-70
2023/09/14 12:10:37;;;;;;;4.25;1.40;;;;;;;;;;6183106;23;20072;-74
2023/09/14 12:13:09;;;;;;;1.73;1.60;;;;;;;;;;6183669;23;20088;-74
2023/09/14 12:15:35;;;;;;;2.35;1.55;;;;;;;;;;6182444;23;20068;-74
2023/09/14 12:18:03;;;;;;;1.70;1.60;;;;;;;;;;6183116;23;20503;-73
2023/09/14 12:20:29;;;;;;;2.30;1.15;;;;;;;;;;6183353;23;20511;-73
2023/09/14 12:22:56;;;;;;;3.20;1.80;;;;;;;;;;6184569;23;20075;-71
2023/09/14 12:25:23;;;;;;;1.60;1.50;;;;;;;;;;6183798;23;20145;-70
2023/09/14 12:27:49;;;;;;;1.77;1.67;;;;;;;;;;6184207;23;20100;-73
2023/09/14 12:30:16;;;;;;;2.15;1.67;;;;;;;;;;6183742;23;20088;-70
2023/09/14 12:32:42;;;;;;;1.80;1.70;;;;;;;;;;6184385;23;20896;-69
2023/09/14 12:35:10;;;;;;;1.60;1.50;;;;;;;;;;6183927;23;20392;-70
2023/09/14 12:37:37;;;;;;;5.07;1.90;;;;;;;;;;6183023;23;20091;-70
2023/09/14 12:40:06;;;;;;;2.05;1.80;;;;;;;;;;6183067;23;20080;-69
2023/09/14 12:42:35;;;;;;;1.70;1.60;;;;;;;;;;6183496;23;20084;-71
2023/09/14 12:45:01;;;;;;;1.67;1.58;;;;;;;;;;6183874;23;20108;-70
2023/09/14 12:47:27;;;;;;;2.03;1.60;;;;;;;;;;6184087;23;20072;-71
2023/09/14 12:50:00;;;;;;;1.98;1.80;;;;;;;;;;6183733;23;20087;-69
2023/09/14 12:52:27;;;;;;;1.70;1.60;;;;;;;;;;6183701;23;20511;-71
2023/09/14 12:54:54;;;;;;;2.13;1.95;;;;;;;;;;6182016;23;20080;-69
2023/09/14 12:57:20;;;;;;;2.65;1.50;;;;;;;;;;6184030;23;20072;-71
2023/09/14 13:00:19;;;;;;;1.60;1.50;;;;;;;;;;6183319;23;20422;-70
2023/09/14 13:02:46;;;;;;;1.65;1.55;;;;;;;;;;6063740;23;20140;-69
2023/09/14 13:05:13;;;;;;;1.88;1.77;;;;;;;;;;6040339;23;20577;-71
2023/09/14 13:07:49;;;;;;;1.77;1.65;;;;;;;;;;6063522;23;20083;-71
2023/09/14 13:10:19;;;;;;;3.72;1.30;;;;;;;;;;6061485;23;20522;-69
2023/09/14 13:12:51;;;;;;;1.63;1.52;;;;;;;;;;6063075;23;20078;-70
2023/09/14 13:15:19;;;;;;;3.17;1.10;;;;;;;;;;6062937;23;20397;-70
2023/09/14 13:17:46;;;;;;;1.48;1.30;;;;;;;;;;6062853;23;20089;-69
2023/09/14 13:20:12;;;;;;;2.72;1.30;;;;;;;;;;6062863;23;20182;-71
2023/09/14 13:22:38;;;;;;;1.83;1.50;;;;;;;;;;6063087;23;20085;-70
2023/09/14 13:25:05;;;;;;;4.38;1.40;;;;;;;;;;6060888;23;20411;-70
2023/09/14 13:27:34;;;;;;;1.40;1.30;;;;;;;;;;6038748;23;20029;-70
2023/09/14 13:30:01;;;;;;;2.60;1.30;;;;;;;;;;6062855;23;20097;-70
2023/09/14 13:32:28;;;;;;;1.60;1.20;;;;;;;;;;6062604;23;20110;-70
2023/09/14 13:34:54;;;;;;;1.73;1.40;;;;;;;;;;6062867;23;20089;-70
2023/09/14 13:37:20;;;;;;;1.92;1.30;;;;;;;;;;6073644;23;20089;-70
2023/09/14 13:39:47;;;;;;;2.65;1.50;;;;;;;;;;6182982;23;20072;-70
2023/09/14 13:42:13;;;;;;;3.35;1.30;;;;;;;;;;6182508;23;20091;-71
2023/09/14 13:44:39;;;;;;;1.92;1.50;;;;;;;;;;6182966;23;20084;-70
2023/09/14 13:47:06;;;;;;;1.48;1.38;;;;;;;;;;6131667;23;20156;-70
2023/09/14 13:49:32;;;;;;;1.40;1.30;;;;;;;;;;6183045;23;20547;-71
2023/09/14 13:51:58;;;;;;;2.35;1.50;;;;;;;;;;6183477;23;20069;-70
2023/09/14 13:54:24;;;;;;;1.70;1.40;;;;;;;;;;6182166;23;20057;-71
2023/09/14 13:56:51;;;;;;;2.75;1.30;;;;;;;;;;6156174;23;20011;-70
2023/09/14 13:59:17;;;;;;;1.25;1.17;;;;;;;;;;6182296;23;20373;-71
2023/09/14 14:01:43;;;;;;;2.05;1.50;;;;;;;;;;6182377;23;20081;-70
2023/09/14 14:04:11;;;;;;;6.75;1.20;;;;;;;;;;6182066;23;20080;-71
2023/09/14 14:06:37;;;;;;;2.70;1.20;;;;;;;;;;6182711;23;20080;-71
2023/09/14 14:09:04;;;;;;;3.30;1.15;;;;;;;;;;6182880;23;20080;-71
2023/09/14 14:11:30;;;;;;;1.63;1.25;;;;;;;;;;6180145;23;20072;-72
2023/09/14 14:13:58;;;;;;;3.58;1.40;;;;;;;;;;6155290;23;20388;-71
2023/09/14 14:16:24;;;;;;;1.30;1.20;;;;;;;;;;6180203;23;20092;-71
2023/09/14 14:18:50;;;;;;;2.97;1.30;;;;;;;;;;6183029;23;20365;-72
2023/09/14 14:21:17;;;;;;;1.25;1.10;;;;;;;;;;6182515;23;20076;-71
2023/09/14 14:23:44;;;;;;;1.30;1.20;;;;;;;;;;6182082;23;20095;-72
2023/09/14 14:26:10;;;;;;;1.23;1.15;;;;;;;;;;6182324;23;20084;-71
2023/09/14 14:28:37;;;;;;;1.15;1.15;;;;;;;;;;6182048;23;20017;-71
2023/09/14 14:31:03;;;;;;;3.17;1.40;;;;;;;;;;6181620;23;20614;-71
2023/09/14 14:33:30;;;;;;;3.55;1.20;;;;;;;;;;6183294;23;20080;-71
2023/09/14 14:35:56;;;;;;;4.07;1.20;;;;;;;;;;6182210;23;20384;-70
2023/09/14 14:38:22;;;;;;;1.60;1.10;;;;;;;;;;6155716;23;20076;-70
2023/09/14 14:40:49;;;;;;;2.80;1.02;;;;;;;;;;6182627;23;20130;-70